createdAt,value
2022-09-18T00:01:19.547Z,100.00
2022-09-18T00:03:48.123Z,100.00
2022-09-18T00:06:17.707Z,100.00
2022-09-18T00:08:49.576Z,100.00
2022-09-18T00:11:17.833Z,100.00
2022-09-18T00:13:46.151Z,100.00
2022-09-18T00:16:16.563Z,100.00
2022-09-18T00:18:45.296Z,100.00
2022-09-18T00:21:15.649Z,100.00
2022-09-18T00:23:44.760Z,100.00
2022-09-18T00:26:16.161Z,100.00
2022-09-18T00:28:44.823Z,100.00
2022-09-18T00:31:15.487Z,100.00
2022-09-18T00:33:44.070Z,100.00
2022-09-18T00:36:14.103Z,100.00
2022-09-18T00:38:42.803Z,100.00
2022-09-18T00:41:15.068Z,100.00
2022-09-18T00:43:43.331Z,100.00
2022-09-18T00:46:24.045Z,100.00
2022-09-18T00:49:02.763Z,100.00
2022-09-18T00:51:32.903Z,100.00
2022-09-18T00:54:07.515Z,100.00
2022-09-18T00:56:37.124Z,100.00
2022-09-18T00:59:05.602Z,100.00
2022-09-18T01:01:33.610Z,100.00
2022-09-18T01:04:01.818Z,100.00
2022-09-18T01:06:39.514Z,100.00
2022-09-18T01:09:27.745Z,100.00
2022-09-18T01:12:07.374Z,100.00
2022-09-18T01:14:42.232Z,100.00
2022-09-18T01:17:19.529Z,100.00
2022-09-18T01:20:05.951Z,100.00
2022-09-18T01:22:48.554Z,100.00
2022-09-18T01:25:22.996Z,100.00
2022-09-18T01:28:08.442Z,100.00
2022-09-18T01:30:42.579Z,100.00
2022-09-18T01:33:18.973Z,100.00
2022-09-18T01:35:50.491Z,100.00
2022-09-18T01:38:24.534Z,100.00
2022-09-18T01:40:57.735Z,100.00
2022-09-18T01:43:31.078Z,100.00
2022-09-18T01:46:04.903Z,100.00
2022-09-18T01:48:41.437Z,100.00
2022-09-18T01:51:15.008Z,100.00
2022-09-18T01:53:49.171Z,100.00
2022-09-18T01:56:20.863Z,100.00
2022-09-18T01:58:53.347Z,100.00
2022-09-18T02:01:27.315Z,100.00
2022-09-18T02:04:01.314Z,100.00
2022-09-18T02:06:35.172Z,100.00
2022-09-18T02:09:04.571Z,100.00
2022-09-18T02:11:35.573Z,100.00
2022-09-18T02:14:09.719Z,100.00
2022-09-18T02:17:02.272Z,100.00
2022-09-18T02:19:37.994Z,100.00
2022-09-18T02:22:10.547Z,100.00
2022-09-18T02:24:40.796Z,100.00
2022-09-18T02:27:12.378Z,100.00
2022-09-18T02:29:44.233Z,100.00
2022-09-18T02:32:13.015Z,100.00
2022-09-18T02:34:43.574Z,100.00
2022-09-18T02:37:38.121Z,100.00
2022-09-18T02:40:20.441Z,100.00
2022-09-18T02:43:00.326Z,100.00
2022-09-18T02:45:37.772Z,100.00
2022-09-18T02:48:20.682Z,100.00
2022-09-18T02:51:00.065Z,100.00
2022-09-18T02:53:32.506Z,100.00
2022-09-18T02:56:04.418Z,100.00
2022-09-18T02:58:42.720Z,100.00
2022-09-18T03:01:14.813Z,100.00
2022-09-18T03:03:43.060Z,100.00
2022-09-18T03:06:13.263Z,100.00
2022-09-18T03:08:41.587Z,100.00
2022-09-18T03:11:10.028Z,100.00
2022-09-18T03:13:38.066Z,100.00
2022-09-18T03:16:06.208Z,100.00
2022-09-18T03:18:35.691Z,100.00
2022-09-18T03:21:04.559Z,100.00
2022-09-18T03:23:34.015Z,100.00
2022-09-18T03:26:15.301Z,100.00
2022-09-18T03:28:44.159Z,100.00
2022-09-18T03:31:14.377Z,100.00
2022-09-18T03:33:43.810Z,100.00
2022-09-18T03:36:13.307Z,100.00
2022-09-18T03:38:42.473Z,100.00
2022-09-18T03:41:10.936Z,100.00
2022-09-18T03:43:41.738Z,100.00
2022-09-18T03:46:11.944Z,100.00
2022-09-18T03:48:40.083Z,100.00
2022-09-18T03:51:09.933Z,100.00
2022-09-18T03:53:37.846Z,100.00
2022-09-18T03:56:32.056Z,100.00
2022-09-18T03:59:07.310Z,100.00
2022-09-18T04:01:55.183Z,100.00
2022-09-18T04:04:29.306Z,100.00
2022-09-18T04:07:18.174Z,100.00
2022-09-18T04:10:26.502Z,100.00
2022-09-18T04:12:54.851Z,100.00
2022-09-18T04:15:28.692Z,100.00
2022-09-18T04:17:57.503Z,100.00
2022-09-18T04:20:25.837Z,100.00
2022-09-18T04:22:55.139Z,100.00
2022-09-18T04:25:23.618Z,100.00
2022-09-18T04:27:51.597Z,100.00
2022-09-18T04:30:21.227Z,100.00
2022-09-18T04:32:49.166Z,100.00
2022-09-18T04:35:19.071Z,100.00
2022-09-18T04:37:47.203Z,100.00
2022-09-18T04:40:16.635Z,100.00
2022-09-18T04:42:44.709Z,100.00
2022-09-18T04:45:12.762Z,100.00
2022-09-18T04:47:41.924Z,100.00
2022-09-18T04:50:10.921Z,100.00
2022-09-18T04:52:58.815Z,100.00
2022-09-18T04:55:29.695Z,100.00
2022-09-18T04:57:57.669Z,100.00
2022-09-18T05:00:25.629Z,100.00
2022-09-18T05:02:54.121Z,100.00
2022-09-18T05:05:25.712Z,100.00
2022-09-18T05:07:55.894Z,100.00
2022-09-18T05:10:24.123Z,100.00
2022-09-18T05:12:54.000Z,100.00
2022-09-18T05:15:22.479Z,100.00
2022-09-18T05:17:59.659Z,100.00
2022-09-18T05:20:28.206Z,100.00
2022-09-18T05:23:01.562Z,100.00
2022-09-18T05:25:31.011Z,100.00
2022-09-18T05:28:02.832Z,100.00
2022-09-18T05:30:38.376Z,100.00
2022-09-18T05:33:08.565Z,100.00
2022-09-18T05:35:40.046Z,100.00
2022-09-18T05:38:08.737Z,100.00
2022-09-18T05:40:39.592Z,100.00
2022-09-18T05:43:09.730Z,100.00
2022-09-18T05:45:38.713Z,100.00
2022-09-18T05:48:17.885Z,100.00
2022-09-18T05:50:46.831Z,100.00
2022-09-18T05:53:19.022Z,100.00
2022-09-18T05:56:11.636Z,100.00
2022-09-18T05:58:40.872Z,100.00
2022-09-18T06:01:09.396Z,100.00
2022-09-18T06:03:54.752Z,100.00
2022-09-18T06:06:24.482Z,100.00
2022-09-18T06:08:52.514Z,100.00
2022-09-18T06:11:21.647Z,100.00
2022-09-18T06:13:52.249Z,100.00
2022-09-18T06:16:20.484Z,100.00
2022-09-18T06:19:01.611Z,100.00
2022-09-18T06:21:29.584Z,100.00
2022-09-18T06:23:58.841Z,100.00
2022-09-18T06:26:42.010Z,100.00
2022-09-18T06:29:11.504Z,100.00
2022-09-18T06:31:48.481Z,100.00
2022-09-18T06:34:22.676Z,100.00
2022-09-18T06:36:53.385Z,100.00
2022-09-18T06:39:28.766Z,100.00
2022-09-18T06:42:00.365Z,100.00
2022-09-18T06:44:48.573Z,100.00
2022-09-18T06:47:18.163Z,100.00
2022-09-18T06:49:48.097Z,100.00
2022-09-18T06:52:18.144Z,100.00
2022-09-18T06:54:47.746Z,100.00
2022-09-18T06:57:31.072Z,100.00
2022-09-18T07:00:00.342Z,100.00
2022-09-18T07:02:31.490Z,100.00
2022-09-18T07:05:19.739Z,100.00
2022-09-18T07:07:48.225Z,100.00
2022-09-18T07:10:17.767Z,100.00
2022-09-18T07:12:48.816Z,100.00
2022-09-18T07:15:20.846Z,100.00
2022-09-18T07:17:48.868Z,100.00
2022-09-18T07:20:18.569Z,100.00
2022-09-18T07:22:55.417Z,100.00
2022-09-18T07:25:34.366Z,100.00
2022-09-18T07:28:07.740Z,100.00
2022-09-18T07:30:41.641Z,100.00
2022-09-18T07:33:10.819Z,100.00
2022-09-18T07:35:45.700Z,100.00
2022-09-18T07:38:16.020Z,100.00
2022-09-18T07:40:52.456Z,100.00
2022-09-18T07:43:31.115Z,100.00
2022-09-18T07:46:02.626Z,100.00
2022-09-18T07:48:33.776Z,100.00
2022-09-18T07:51:16.006Z,100.00
2022-09-18T07:53:48.709Z,100.00
2022-09-18T07:56:23.849Z,100.00
2022-09-18T07:58:52.237Z,100.00
2022-09-18T08:01:26.910Z,100.00
2022-09-18T08:03:57.461Z,100.00
2022-09-18T08:06:37.045Z,100.00
2022-09-18T08:09:20.871Z,100.00
2022-09-18T08:12:20.927Z,100.00
2022-09-18T08:15:02.348Z,100.00
2022-09-18T08:17:58.138Z,100.00
2022-09-18T08:21:09.850Z,100.00
2022-09-18T08:23:43.718Z,100.00
2022-09-18T08:26:11.670Z,100.00
2022-09-18T08:28:39.666Z,100.00
2022-09-18T08:31:08.340Z,100.00
2022-09-18T08:33:37.596Z,100.00
2022-09-18T08:36:07.071Z,100.00
2022-09-18T08:38:38.008Z,100.00
2022-09-18T08:42:01.049Z,100.00
2022-09-18T08:44:35.925Z,100.00
2022-09-18T08:47:07.264Z,100.00
2022-09-18T08:49:42.910Z,100.00
2022-09-18T08:52:16.440Z,100.00
2022-09-18T08:54:49.831Z,100.00
2022-09-18T08:57:33.838Z,100.00
2022-09-18T09:00:18.285Z,100.00
2022-09-18T09:02:54.191Z,100.00
2022-09-18T09:05:29.098Z,100.00
2022-09-18T09:08:08.688Z,100.00
2022-09-18T09:10:44.247Z,100.00
2022-09-18T09:13:44.910Z,100.00
2022-09-18T09:16:16.853Z,100.00
2022-09-18T09:18:58.650Z,100.00
2022-09-18T09:21:46.570Z,100.00
2022-09-18T09:24:30.989Z,100.00
2022-09-18T09:27:15.645Z,100.00
2022-09-18T09:30:05.249Z,100.00
2022-09-18T09:32:50.582Z,100.00
2022-09-18T09:35:44.111Z,100.00
2022-09-18T09:38:41.910Z,100.00
2022-09-18T09:41:20.675Z,100.00
2022-09-18T09:43:58.752Z,100.00
2022-09-18T09:46:47.689Z,100.00
2022-09-18T09:49:19.665Z,100.00
2022-09-18T09:51:58.667Z,100.00
2022-09-18T09:54:28.046Z,100.00
2022-09-18T09:57:04.516Z,100.00
2022-09-18T09:59:41.275Z,100.00
2022-09-18T10:02:33.250Z,100.00
2022-09-18T10:05:15.119Z,100.00
2022-09-18T10:07:50.601Z,100.00
2022-09-18T10:10:27.404Z,100.00
2022-09-18T10:13:00.839Z,100.00
2022-09-18T10:15:35.976Z,100.00
2022-09-18T10:18:16.106Z,100.00
2022-09-18T10:20:47.079Z,100.00
2022-09-18T10:23:23.965Z,100.00
2022-09-18T10:25:59.168Z,100.00
2022-09-18T10:28:29.470Z,100.00
2022-09-18T10:31:02.859Z,100.00
2022-09-18T10:33:39.517Z,100.00
2022-09-18T10:36:19.341Z,100.00
2022-09-18T10:38:47.952Z,100.00
2022-09-18T10:41:40.455Z,100.00
2022-09-18T10:44:23.837Z,100.00
2022-09-18T10:47:02.427Z,100.00
2022-09-18T10:49:33.973Z,99.15
2022-09-18T10:52:35.063Z,94.20
2022-09-18T10:55:16.977Z,89.56
2022-09-18T10:58:08.224Z,92.15
2022-09-18T11:00:39.864Z,89.23
2022-09-18T11:03:24.718Z,97.02
2022-09-18T11:05:58.373Z,96.24
2022-09-18T11:08:29.464Z,100.00
2022-09-18T11:11:04.096Z,100.00
2022-09-18T11:13:43.458Z,100.00
2022-09-18T11:16:24.200Z,100.00
2022-09-18T11:19:17.189Z,100.00
2022-09-18T11:21:47.798Z,100.00
2022-09-18T11:24:23.423Z,100.00
2022-09-18T11:26:54.665Z,100.00
2022-09-18T11:29:30.592Z,100.00
2022-09-18T11:32:06.479Z,100.00
2022-09-18T11:34:39.661Z,100.00
2022-09-18T11:37:14.794Z,100.00
2022-09-18T11:39:51.223Z,100.00
2022-09-18T11:42:19.486Z,100.00
2022-09-18T11:44:52.508Z,100.00
2022-09-18T11:47:37.442Z,100.00
2022-09-18T11:50:12.883Z,100.00
2022-09-18T11:52:45.250Z,100.00
2022-09-18T11:55:28.392Z,100.00
2022-09-18T11:58:02.220Z,97.44
2022-09-18T12:00:36.293Z,100.00
2022-09-18T12:03:17.803Z,98.06
2022-09-18T12:05:53.435Z,100.00
2022-09-18T12:08:35.690Z,100.00
2022-09-18T12:11:18.264Z,100.00
2022-09-18T12:13:59.422Z,99.01
2022-09-18T12:16:46.768Z,100.00
2022-09-18T12:19:24.003Z,99.77
2022-09-18T12:21:59.049Z,100.00
2022-09-18T12:24:27.177Z,100.00
2022-09-18T12:27:09.210Z,99.61
2022-09-18T12:29:55.745Z,100.00
2022-09-18T12:32:47.690Z,100.00
2022-09-18T12:35:27.265Z,100.00
2022-09-18T12:38:10.519Z,100.00
2022-09-18T12:40:58.585Z,100.00
2022-09-18T12:43:42.850Z,100.00
2022-09-18T12:46:20.484Z,100.00
2022-09-18T12:49:06.862Z,100.00
2022-09-18T12:51:42.085Z,100.00
2022-09-18T12:54:27.966Z,100.00
2022-09-18T12:57:10.283Z,100.00
2022-09-18T12:59:49.719Z,100.00
2022-09-18T13:02:23.487Z,100.00
2022-09-18T13:04:58.529Z,100.00
2022-09-18T13:07:31.331Z,100.00
2022-09-18T13:10:06.219Z,100.00
2022-09-18T13:12:37.664Z,100.00
2022-09-18T13:15:14.720Z,100.00
2022-09-18T13:17:48.808Z,100.00
2022-09-18T13:20:24.567Z,100.00
2022-09-18T13:22:54.442Z,100.00
2022-09-18T13:25:28.234Z,100.00
2022-09-18T13:27:57.561Z,100.00
2022-09-18T13:30:28.942Z,100.00
2022-09-18T13:32:58.526Z,100.00
2022-09-18T13:35:30.215Z,100.00
2022-09-18T13:38:15.797Z,100.00
2022-09-18T13:40:46.480Z,100.00
2022-09-18T13:43:23.505Z,100.00
2022-09-18T13:45:51.656Z,100.00
2022-09-18T13:48:27.238Z,100.00
2022-09-18T13:51:00.161Z,100.00
2022-09-18T13:54:08.823Z,100.00
2022-09-18T13:57:10.696Z,100.00
2022-09-18T13:59:50.470Z,100.00
2022-09-18T14:02:25.731Z,100.00
2022-09-18T14:05:19.424Z,100.00
2022-09-18T14:07:57.781Z,100.00
2022-09-18T14:10:32.485Z,100.00
2022-09-18T14:13:23.584Z,100.00
2022-09-18T14:15:56.656Z,100.00
2022-09-18T14:18:28.526Z,100.00
2022-09-18T14:21:12.732Z,100.00
2022-09-18T14:24:18.840Z,100.00
2022-09-18T14:27:24.675Z,100.00
2022-09-18T14:29:57.462Z,100.00
2022-09-18T14:32:27.496Z,100.00
2022-09-18T14:35:19.569Z,100.00
2022-09-18T14:37:48.162Z,100.00
2022-09-18T14:40:21.895Z,100.00
2022-09-18T14:42:50.478Z,100.00
2022-09-18T14:45:27.964Z,100.00
2022-09-18T14:47:56.279Z,100.00
2022-09-18T14:50:27.891Z,100.00
2022-09-18T14:52:56.945Z,100.00
2022-09-18T14:55:30.971Z,100.00
2022-09-18T14:58:02.892Z,100.00
2022-09-18T15:00:33.247Z,100.00
2022-09-18T15:03:04.922Z,100.00
2022-09-18T15:05:33.938Z,100.00
2022-09-18T15:08:04.995Z,100.00
2022-09-18T15:10:39.294Z,100.00
2022-09-18T15:13:10.302Z,100.00
2022-09-18T15:15:40.378Z,100.00
2022-09-18T15:18:19.543Z,100.00
2022-09-18T15:20:51.396Z,100.00
2022-09-18T15:23:21.518Z,100.00
2022-09-18T15:25:54.175Z,100.00
2022-09-18T15:28:24.148Z,100.00
2022-09-18T15:30:57.290Z,100.00
2022-09-18T15:33:27.330Z,100.00
2022-09-18T15:35:56.875Z,100.00
2022-09-18T15:38:31.159Z,100.00
2022-09-18T15:41:32.891Z,100.00
2022-09-18T15:44:01.340Z,100.00
2022-09-18T15:46:31.882Z,100.00
2022-09-18T15:49:03.107Z,100.00
2022-09-18T15:51:32.286Z,100.00
2022-09-18T15:54:23.591Z,100.00
2022-09-18T15:56:54.557Z,100.00
2022-09-18T15:59:29.706Z,100.00
2022-09-18T16:01:58.860Z,100.00
2022-09-18T16:04:32.352Z,100.00
2022-09-18T16:07:03.850Z,100.00
2022-09-18T16:09:41.727Z,100.00
2022-09-18T16:12:39.779Z,100.00
2022-09-18T16:15:22.134Z,100.00
2022-09-18T16:18:01.868Z,100.00
2022-09-18T16:20:34.468Z,100.00
2022-09-18T16:23:15.337Z,100.00
2022-09-18T16:25:44.499Z,100.00
2022-09-18T16:28:23.620Z,100.00
2022-09-18T16:30:52.095Z,100.00
2022-09-18T16:33:22.618Z,100.00
2022-09-18T16:35:56.760Z,100.00
2022-09-18T16:38:24.752Z,100.00
2022-09-18T16:40:52.893Z,100.00
2022-09-18T16:43:22.331Z,100.00
2022-09-18T16:45:51.101Z,100.00
2022-09-18T16:48:19.873Z,100.00
2022-09-18T16:50:48.518Z,100.00
2022-09-18T16:53:16.689Z,100.00
2022-09-18T16:55:48.598Z,100.00
2022-09-18T16:58:19.431Z,100.00
2022-09-18T17:00:49.122Z,100.00
2022-09-18T17:03:18.146Z,100.00
2022-09-18T17:05:46.632Z,100.00
2022-09-18T17:08:14.569Z,100.00
2022-09-18T17:10:45.178Z,100.00
2022-09-18T17:13:13.774Z,100.00
2022-09-18T17:15:41.826Z,100.00
2022-09-18T17:18:11.083Z,100.00
2022-09-18T17:20:39.439Z,100.00
2022-09-18T17:23:08.092Z,100.00
2022-09-18T17:25:36.790Z,100.00
2022-09-18T17:28:04.926Z,100.00
2022-09-18T17:30:33.169Z,100.00
2022-09-18T17:33:01.208Z,100.00
2022-09-18T17:35:30.567Z,100.00
2022-09-18T17:37:58.433Z,100.00
2022-09-18T17:40:26.655Z,100.00
2022-09-18T17:42:54.835Z,100.00
2022-09-18T17:45:22.786Z,100.00
2022-09-18T17:47:52.070Z,100.00
2022-09-18T17:50:21.150Z,100.00
2022-09-18T17:52:50.441Z,100.00
2022-09-18T17:55:18.674Z,100.00
2022-09-18T17:57:46.648Z,100.00
2022-09-18T18:00:15.661Z,100.00
2022-09-18T18:02:43.683Z,100.00
2022-09-18T18:05:11.663Z,100.00
2022-09-18T18:07:39.632Z,100.00
2022-09-18T18:10:09.912Z,100.00
2022-09-18T18:12:37.936Z,100.00
2022-09-18T18:15:06.941Z,100.00
2022-09-18T18:17:35.850Z,100.00
2022-09-18T18:20:05.584Z,100.00
2022-09-18T18:22:33.552Z,100.00
2022-09-18T18:25:01.595Z,100.00
2022-09-18T18:27:33.384Z,100.00
2022-09-18T18:30:01.383Z,100.00
2022-09-18T18:32:29.273Z,100.00
2022-09-18T18:34:57.731Z,100.00
2022-09-18T18:37:25.722Z,100.00
2022-09-18T18:39:53.738Z,100.00
2022-09-18T18:42:21.958Z,100.00
2022-09-18T18:44:51.217Z,100.00
2022-09-18T18:47:20.347Z,100.00
2022-09-18T18:49:48.719Z,100.00
2022-09-18T18:52:16.859Z,100.00
2022-09-18T18:54:45.820Z,100.00
2022-09-18T18:57:13.865Z,100.00
2022-09-18T18:59:43.721Z,100.00
2022-09-18T19:02:13.098Z,100.00
2022-09-18T19:04:43.012Z,100.00
2022-09-18T19:07:11.018Z,100.00
2022-09-18T19:09:39.135Z,100.00
2022-09-18T19:12:07.495Z,100.00
2022-09-18T19:14:37.876Z,100.00
2022-09-18T19:17:06.352Z,100.00
2022-09-18T19:19:35.722Z,100.00
2022-09-18T19:22:03.692Z,100.00
2022-09-18T19:24:31.870Z,100.00
2022-09-18T19:26:59.912Z,100.00
2022-09-18T19:29:30.461Z,100.00
2022-09-18T19:32:00.231Z,100.00
2022-09-18T19:34:28.134Z,100.00
2022-09-18T19:36:57.956Z,100.00
2022-09-18T19:39:26.280Z,100.00
2022-09-18T19:41:59.173Z,100.00
2022-09-18T19:44:32.664Z,100.00
2022-09-18T19:47:03.099Z,100.00
2022-09-18T19:49:34.533Z,100.00
2022-09-18T19:52:05.354Z,100.00
2022-09-18T19:54:33.254Z,100.00
2022-09-18T19:57:01.210Z,100.00
2022-09-18T19:59:29.324Z,100.00
2022-09-18T20:01:57.428Z,100.00
2022-09-18T20:04:25.495Z,100.00
2022-09-18T20:06:53.395Z,100.00
2022-09-18T20:09:22.740Z,100.00
2022-09-18T20:11:50.770Z,100.00
2022-09-18T20:14:18.899Z,100.00
2022-09-18T20:16:46.928Z,100.00
2022-09-18T20:19:14.890Z,100.00
2022-09-18T20:21:42.960Z,100.00
2022-09-18T20:24:11.013Z,100.00
2022-09-18T20:26:40.276Z,100.00
2022-09-18T20:29:08.277Z,100.00
2022-09-18T20:31:36.994Z,100.00
2022-09-18T20:34:05.784Z,100.00
2022-09-18T20:36:34.738Z,100.00
2022-09-18T20:39:03.593Z,100.00
2022-09-18T20:41:31.784Z,100.00
2022-09-18T20:44:04.835Z,100.00
2022-09-18T20:46:37.138Z,100.00
2022-09-18T20:49:06.279Z,100.00
2022-09-18T20:51:35.891Z,100.00
2022-09-18T20:54:08.073Z,100.00
2022-09-18T20:56:41.183Z,100.00
2022-09-18T20:59:12.302Z,100.00
2022-09-18T21:01:41.805Z,100.00
2022-09-18T21:04:17.198Z,100.00
2022-09-18T21:06:46.955Z,100.00
2022-09-18T21:09:15.781Z,100.00
2022-09-18T21:11:44.761Z,100.00
2022-09-18T21:14:16.325Z,100.00
2022-09-18T21:16:44.891Z,100.00
2022-09-18T21:19:14.275Z,100.00
2022-09-18T21:21:42.348Z,100.00
2022-09-18T21:24:10.876Z,100.00
2022-09-18T21:26:41.000Z,100.00
2022-09-18T21:29:13.602Z,100.00
2022-09-18T21:31:43.521Z,100.00
2022-09-18T21:34:13.217Z,100.00
2022-09-18T21:36:43.238Z,100.00
2022-09-18T21:39:12.767Z,100.00
2022-09-18T21:41:45.726Z,100.00
2022-09-18T21:44:15.584Z,100.00
2022-09-18T21:46:45.741Z,100.00
2022-09-18T21:49:15.939Z,100.00
2022-09-18T21:51:44.408Z,100.00
2022-09-18T21:54:15.490Z,100.00
2022-09-18T21:56:44.033Z,100.00
2022-09-18T21:59:12.675Z,100.00
2022-09-18T22:01:42.668Z,100.00
2022-09-18T22:04:12.338Z,100.00
2022-09-18T22:06:41.588Z,100.00
2022-09-18T22:09:11.295Z,100.00
2022-09-18T22:11:39.877Z,100.00
2022-09-18T22:14:10.178Z,100.00
2022-09-18T22:16:39.365Z,100.00
2022-09-18T22:19:09.115Z,100.00
2022-09-18T22:21:40.528Z,100.00
2022-09-18T22:24:10.214Z,100.00
2022-09-18T22:26:40.049Z,100.00
2022-09-18T22:29:08.874Z,100.00
2022-09-18T22:31:38.367Z,100.00
2022-09-18T22:34:07.521Z,100.00
2022-09-18T22:36:35.610Z,100.00
2022-09-18T22:39:04.964Z,100.00
2022-09-18T22:41:32.877Z,100.00
2022-09-18T22:44:00.774Z,100.00
2022-09-18T22:46:28.807Z,100.00
2022-09-18T22:48:56.770Z,100.00
2022-09-18T22:51:27.456Z,100.00
2022-09-18T22:53:57.201Z,100.00
2022-09-18T22:56:28.821Z,100.00
2022-09-18T22:58:57.903Z,100.00
2022-09-18T23:01:28.830Z,100.00
2022-09-18T23:03:58.039Z,100.00
2022-09-18T23:06:27.912Z,100.00
2022-09-18T23:08:57.305Z,100.00
2022-09-18T23:11:28.419Z,100.00
2022-09-18T23:13:58.585Z,100.00
2022-09-18T23:16:29.169Z,100.00
2022-09-18T23:18:59.267Z,100.00
2022-09-18T23:21:27.793Z,100.00
2022-09-18T23:23:57.456Z,100.00
2022-09-18T23:26:28.873Z,100.00
2022-09-18T23:28:59.003Z,100.00
2022-09-18T23:31:29.134Z,100.00
2022-09-18T23:33:58.792Z,100.00
2022-09-18T23:36:28.916Z,100.00
2022-09-18T23:38:59.336Z,100.00
2022-09-18T23:41:30.685Z,100.00
2022-09-18T23:43:58.584Z,100.00
2022-09-18T23:46:26.584Z,100.00
2022-09-18T23:48:55.692Z,100.00
2022-09-18T23:51:24.862Z,100.00
2022-09-18T23:53:53.446Z,100.00
2022-09-18T23:56:23.448Z,100.00
2022-09-18T23:58:55.367Z,100.00
